sensor_id;sensor_type;location;lat;lon;timestamp;temperature;humidity
20568;DHT22;10442;49.932;11.592;2023-12-22T00:00:19;7.00;74.80
20568;DHT22;10442;49.932;11.592;2023-12-22T00:02:48;7.00;74.50
20568;DHT22;10442;49.932;11.592;2023-12-22T00:05:17;7.00;74.40
20568;DHT22;10442;49.932;11.592;2023-12-22T00:07:44;7.00;74.40
20568;DHT22;10442;49.932;11.592;2023-12-22T00:10:12;7.10;74.30
20568;DHT22;10442;49.932;11.592;2023-12-22T00:12:40;7.10;74.40
20568;DHT22;10442;49.932;11.592;2023-12-22T00:15:08;7.10;74.30
20568;DHT22;10442;49.932;11.592;2023-12-22T00:17:37;7.10;74.20
20568;DHT22;10442;49.932;11.592;2023-12-22T00:20:05;7.10;74.10
20568;DHT22;10442;49.932;11.592;2023-12-22T00:22:33;7.10;74.10
20568;DHT22;10442;49.932;11.592;2023-12-22T00:25:01;7.10;74.10
20568;DHT22;10442;49.932;11.592;2023-12-22T00:27:29;7.10;74.00
20568;DHT22;10442;49.932;11.592;2023-12-22T00:29:58;7.20;73.80
20568;DHT22;10442;49.932;11.592;2023-12-22T00:32:26;7.10;73.70
20568;DHT22;10442;49.932;11.592;2023-12-22T00:34:53;7.10;73.60
20568;DHT22;10442;49.932;11.592;2023-12-22T00:37:21;7.10;73.30
20568;DHT22;10442;49.932;11.592;2023-12-22T00:39:50;7.10;73.20
20568;DHT22;10442;49.932;11.592;2023-12-22T00:42:19;7.20;73.30
20568;DHT22;10442;49.932;11.592;2023-12-22T00:44:46;7.20;73.20
20568;DHT22;10442;49.932;11.592;2023-12-22T00:47:14;7.20;73.00
20568;DHT22;10442;49.932;11.592;2023-12-22T00:49:41;7.20;73.10
20568;DHT22;10442;49.932;11.592;2023-12-22T00:52:09;7.20;73.20
20568;DHT22;10442;49.932;11.592;2023-12-22T00:54:36;7.20;73.00
20568;DHT22;10442;49.932;11.592;2023-12-22T00:57:04;7.20;72.70
20568;DHT22;10442;49.932;11.592;2023-12-22T00:59:32;7.20;72.80
20568;DHT22;10442;49.932;11.592;2023-12-22T01:01:59;7.20;72.60
20568;DHT22;10442;49.932;11.592;2023-12-22T01:04:27;7.20;72.60
20568;DHT22;10442;49.932;11.592;2023-12-22T01:06:56;7.20;72.50
20568;DHT22;10442;49.932;11.592;2023-12-22T01:09:23;7.10;72.30
20568;DHT22;10442;49.932;11.592;2023-12-22T01:11:51;7.10;72.50
20568;DHT22;10442;49.932;11.592;2023-12-22T01:14:20;7.00;72.30
20568;DHT22;10442;49.932;11.592;2023-12-22T01:16:49;7.00;72.50
20568;DHT22;10442;49.932;11.592;2023-12-22T01:19:16;6.90;72.50
20568;DHT22;10442;49.932;11.592;2023-12-22T01:21:44;6.90;72.70
20568;DHT22;10442;49.932;11.592;2023-12-22T01:24:11;6.80;72.90
20568;DHT22;10442;49.932;11.592;2023-12-22T01:26:39;6.80;73.10
20568;DHT22;10442;49.932;11.592;2023-12-22T01:29:09;6.80;73.30
20568;DHT22;10442;49.932;11.592;2023-12-22T01:31:37;6.70;73.40
20568;DHT22;10442;49.932;11.592;2023-12-22T01:34:04;6.70;73.60
20568;DHT22;10442;49.932;11.592;2023-12-22T01:36:33;6.70;73.70
20568;DHT22;10442;49.932;11.592;2023-12-22T01:39:00;6.70;73.80
20568;DHT22;10442;49.932;11.592;2023-12-22T01:41:28;6.60;73.80
20568;DHT22;10442;49.932;11.592;2023-12-22T01:43:56;6.60;74.00
20568;DHT22;10442;49.932;11.592;2023-12-22T01:46:23;6.60;74.20
20568;DHT22;10442;49.932;11.592;2023-12-22T01:48:52;6.60;74.30
20568;DHT22;10442;49.932;11.592;2023-12-22T01:51:20;6.60;74.50
20568;DHT22;10442;49.932;11.592;2023-12-22T01:53:48;6.70;74.70
20568;DHT22;10442;49.932;11.592;2023-12-22T01:56:16;6.70;74.70
20568;DHT22;10442;49.932;11.592;2023-12-22T01:58:44;6.70;74.60
20568;DHT22;10442;49.932;11.592;2023-12-22T02:01:19;6.70;74.80
20568;DHT22;10442;49.932;11.592;2023-12-22T02:03:51;6.70;74.80
20568;DHT22;10442;49.932;11.592;2023-12-22T02:06:21;6.70;74.80
20568;DHT22;10442;49.932;11.592;2023-12-22T02:08:49;6.80;75.00
20568;DHT22;10442;49.932;11.592;2023-12-22T02:11:17;6.80;75.00
20568;DHT22;10442;49.932;11.592;2023-12-22T02:13:45;6.80;75.00
20568;DHT22;10442;49.932;11.592;2023-12-22T02:16:30;6.80;75.10
20568;DHT22;10442;49.932;11.592;2023-12-22T02:19:09;6.90;75.00
20568;DHT22;10442;49.932;11.592;2023-12-22T02:24:33;7.00;75.10
20568;DHT22;10442;49.932;11.592;2023-12-22T02:27:06;7.00;75.00
20568;DHT22;10442;49.932;11.592;2023-12-22T02:29:41;7.00;74.90
20568;DHT22;10442;49.932;11.592;2023-12-22T02:32:14;7.00;74.70
20568;DHT22;10442;49.932;11.592;2023-12-22T02:34:45;7.00;74.80
20568;DHT22;10442;49.932;11.592;2023-12-22T02:37:17;7.10;74.90
20568;DHT22;10442;49.932;11.592;2023-12-22T02:39:45;7.10;75.10
20568;DHT22;10442;49.932;11.592;2023-12-22T02:42:15;7.10;75.20
20568;DHT22;10442;49.932;11.592;2023-12-22T02:44:42;7.10;75.30
20568;DHT22;10442;49.932;11.592;2023-12-22T02:47:10;7.10;75.30
20568;DHT22;10442;49.932;11.592;2023-12-22T02:49:37;7.10;75.30
20568;DHT22;10442;49.932;11.592;2023-12-22T02:52:06;7.10;75.20
20568;DHT22;10442;49.932;11.592;2023-12-22T02:54:34;7.10;75.10
20568;DHT22;10442;49.932;11.592;2023-12-22T02:57:01;7.10;74.80
20568;DHT22;10442;49.932;11.592;2023-12-22T02:59:29;7.10;74.50
20568;DHT22;10442;49.932;11.592;2023-12-22T03:01:57;7.10;74.30
20568;DHT22;10442;49.932;11.592;2023-12-22T03:04:24;7.00;74.20
20568;DHT22;10442;49.932;11.592;2023-12-22T03:06:52;7.00;74.30
20568;DHT22;10442;49.932;11.592;2023-12-22T03:09:19;7.00;74.30
20568;DHT22;10442;49.932;11.592;2023-12-22T03:11:48;7.00;74.40
20568;DHT22;10442;49.932;11.592;2023-12-22T03:14:16;7.00;74.10
20568;DHT22;10442;49.932;11.592;2023-12-22T03:16:43;7.00;74.10
20568;DHT22;10442;49.932;11.592;2023-12-22T03:19:12;7.00;74.30
20568;DHT22;10442;49.932;11.592;2023-12-22T03:21:40;7.00;74.10
20568;DHT22;10442;49.932;11.592;2023-12-22T03:24:07;7.00;74.10
20568;DHT22;10442;49.932;11.592;2023-12-22T03:26:35;7.00;74.10
20568;DHT22;10442;49.932;11.592;2023-12-22T03:29:02;7.00;73.90
20568;DHT22;10442;49.932;11.592;2023-12-22T03:31:30;7.00;73.50
20568;DHT22;10442;49.932;11.592;2023-12-22T03:33:57;7.00;73.30
20568;DHT22;10442;49.932;11.592;2023-12-22T03:36:27;7.00;73.40
20568;DHT22;10442;49.932;11.592;2023-12-22T03:38:55;7.00;73.30
20568;DHT22;10442;49.932;11.592;2023-12-22T03:41:22;7.00;73.30
20568;DHT22;10442;49.932;11.592;2023-12-22T03:43:49;7.00;73.10
20568;DHT22;10442;49.932;11.592;2023-12-22T03:46:17;7.00;72.90
20568;DHT22;10442;49.932;11.592;2023-12-22T03:48:46;7.00;73.00
20568;DHT22;10442;49.932;11.592;2023-12-22T03:51:15;7.00;72.70
20568;DHT22;10442;49.932;11.592;2023-12-22T03:53:43;6.90;72.70
20568;DHT22;10442;49.932;11.592;2023-12-22T03:56:12;6.90;72.90
20568;DHT22;10442;49.932;11.592;2023-12-22T03:58:39;6.90;73.10
20568;DHT22;10442;49.932;11.592;2023-12-22T04:01:08;6.90;73.20
20568;DHT22;10442;49.932;11.592;2023-12-22T04:03:36;6.90;73.30
20568;DHT22;10442;49.932;11.592;2023-12-22T04:06:04;6.90;73.30
20568;DHT22;10442;49.932;11.592;2023-12-22T04:08:32;6.90;73.40
20568;DHT22;10442;49.932;11.592;2023-12-22T04:11:02;6.90;73.40
20568;DHT22;10442;49.932;11.592;2023-12-22T04:13:30;6.90;73.30
20568;DHT22;10442;49.932;11.592;2023-12-22T04:15:57;6.90;73.40
20568;DHT22;10442;49.932;11.592;2023-12-22T04:18:25;6.90;73.30
20568;DHT22;10442;49.932;11.592;2023-12-22T04:20:52;6.90;73.30
20568;DHT22;10442;49.932;11.592;2023-12-22T04:23:22;6.80;73.10
20568;DHT22;10442;49.932;11.592;2023-12-22T04:25:50;6.80;73.30
20568;DHT22;10442;49.932;11.592;2023-12-22T04:28:18;6.80;73.20
20568;DHT22;10442;49.932;11.592;2023-12-22T04:30:46;6.80;73.20
20568;DHT22;10442;49.932;11.592;2023-12-22T04:33:15;6.70;73.20
20568;DHT22;10442;49.932;11.592;2023-12-22T04:35:44;6.70;73.20
20568;DHT22;10442;49.932;11.592;2023-12-22T04:38:11;6.70;73.20
20568;DHT22;10442;49.932;11.592;2023-12-22T04:40:40;6.70;73.20
20568;DHT22;10442;49.932;11.592;2023-12-22T04:43:09;6.70;73.20
20568;DHT22;10442;49.932;11.592;2023-12-22T04:45:37;6.70;73.20
20568;DHT22;10442;49.932;11.592;2023-12-22T04:48:06;6.70;73.20
20568;DHT22;10442;49.932;11.592;2023-12-22T04:50:34;6.60;73.10
20568;DHT22;10442;49.932;11.592;2023-12-22T04:53:03;6.60;73.20
20568;DHT22;10442;49.932;11.592;2023-12-22T04:55:30;6.60;73.30
20568;DHT22;10442;49.932;11.592;2023-12-22T04:57:58;6.60;73.40
20568;DHT22;10442;49.932;11.592;2023-12-22T05:00:25;6.60;73.40
20568;DHT22;10442;49.932;11.592;2023-12-22T05:02:53;6.60;73.40
20568;DHT22;10442;49.932;11.592;2023-12-22T05:05:20;6.60;73.40
20568;DHT22;10442;49.932;11.592;2023-12-22T05:07:48;6.60;73.50
20568;DHT22;10442;49.932;11.592;2023-12-22T05:10:17;6.60;73.70
20568;DHT22;10442;49.932;11.592;2023-12-22T05:12:44;6.60;73.60
20568;DHT22;10442;49.932;11.592;2023-12-22T05:15:12;6.60;73.50
20568;DHT22;10442;49.932;11.592;2023-12-22T05:17:39;6.60;73.70
20568;DHT22;10442;49.932;11.592;2023-12-22T05:20:09;6.70;73.90
20568;DHT22;10442;49.932;11.592;2023-12-22T05:22:37;6.70;74.10
20568;DHT22;10442;49.932;11.592;2023-12-22T05:25:05;6.70;73.80
20568;DHT22;10442;49.932;11.592;2023-12-22T05:27:33;6.60;73.80
20568;DHT22;10442;49.932;11.592;2023-12-22T05:30:01;6.60;73.80
20568;DHT22;10442;49.932;11.592;2023-12-22T05:32:31;6.60;73.80
20568;DHT22;10442;49.932;11.592;2023-12-22T05:34:58;6.60;73.60
20568;DHT22;10442;49.932;11.592;2023-12-22T05:37:26;6.60;73.40
20568;DHT22;10442;49.932;11.592;2023-12-22T05:39:53;6.60;73.40
20568;DHT22;10442;49.932;11.592;2023-12-22T05:42:21;6.60;73.20
20568;DHT22;10442;49.932;11.592;2023-12-22T05:44:50;6.50;73.20
20568;DHT22;10442;49.932;11.592;2023-12-22T05:47:17;6.50;73.10
20568;DHT22;10442;49.932;11.592;2023-12-22T05:49:46;6.50;72.90
20568;DHT22;10442;49.932;11.592;2023-12-22T05:52:15;6.50;72.80
20568;DHT22;10442;49.932;11.592;2023-12-22T05:54:42;6.40;72.70
20568;DHT22;10442;49.932;11.592;2023-12-22T05:57:10;6.40;72.80
20568;DHT22;10442;49.932;11.592;2023-12-22T05:59:37;6.40;72.80
20568;DHT22;10442;49.932;11.592;2023-12-22T06:02:05;6.40;72.90
20568;DHT22;10442;49.932;11.592;2023-12-22T06:04:32;6.30;72.90
20568;DHT22;10442;49.932;11.592;2023-12-22T06:07:01;6.30;73.00
20568;DHT22;10442;49.932;11.592;2023-12-22T06:09:29;6.20;73.10
20568;DHT22;10442;49.932;11.592;2023-12-22T06:11:57;6.20;73.40
20568;DHT22;10442;49.932;11.592;2023-12-22T06:14:25;6.20;73.60
20568;DHT22;10442;49.932;11.592;2023-12-22T06:16:52;6.20;73.70
20568;DHT22;10442;49.932;11.592;2023-12-22T06:19:21;6.20;73.80
20568;DHT22;10442;49.932;11.592;2023-12-22T06:21:49;6.20;74.00
20568;DHT22;10442;49.932;11.592;2023-12-22T06:24:18;6.20;74.00
20568;DHT22;10442;49.932;11.592;2023-12-22T06:26:45;6.20;74.00
20568;DHT22;10442;49.932;11.592;2023-12-22T06:29:13;6.20;74.10
20568;DHT22;10442;49.932;11.592;2023-12-22T06:31:40;6.10;74.20
20568;DHT22;10442;49.932;11.592;2023-12-22T06:34:08;6.10;74.30
20568;DHT22;10442;49.932;11.592;2023-12-22T06:36:37;6.10;74.40
20568;DHT22;10442;49.932;11.592;2023-12-22T06:39:04;6.10;74.50
20568;DHT22;10442;49.932;11.592;2023-12-22T06:41:32;6.20;74.50
20568;DHT22;10442;49.932;11.592;2023-12-22T06:44:01;6.20;74.20
20568;DHT22;10442;49.932;11.592;2023-12-22T06:46:29;6.20;74.30
20568;DHT22;10442;49.932;11.592;2023-12-22T06:48:58;6.20;74.00
20568;DHT22;10442;49.932;11.592;2023-12-22T06:51:30;6.20;74.00
20568;DHT22;10442;49.932;11.592;2023-12-22T06:53:58;6.30;73.70
20568;DHT22;10442;49.932;11.592;2023-12-22T06:56:32;6.30;73.50
20568;DHT22;10442;49.932;11.592;2023-12-22T06:59:01;6.30;73.40
20568;DHT22;10442;49.932;11.592;2023-12-22T07:01:31;6.30;73.00
20568;DHT22;10442;49.932;11.592;2023-12-22T07:04:02;6.30;73.20
20568;DHT22;10442;49.932;11.592;2023-12-22T07:06:32;6.30;73.20
20568;DHT22;10442;49.932;11.592;2023-12-22T07:11:51;6.30;73.00
20568;DHT22;10442;49.932;11.592;2023-12-22T07:14:20;6.30;72.80
20568;DHT22;10442;49.932;11.592;2023-12-22T07:16:48;6.30;72.80
20568;DHT22;10442;49.932;11.592;2023-12-22T07:19:16;6.30;72.80
20568;DHT22;10442;49.932;11.592;2023-12-22T07:21:46;6.30;73.00
20568;DHT22;10442;49.932;11.592;2023-12-22T07:24:14;6.40;73.20
20568;DHT22;10442;49.932;11.592;2023-12-22T07:26:43;6.40;73.20
20568;DHT22;10442;49.932;11.592;2023-12-22T07:29:12;6.40;73.40
20568;DHT22;10442;49.932;11.592;2023-12-22T07:31:40;6.40;73.60
20568;DHT22;10442;49.932;11.592;2023-12-22T07:34:09;6.40;73.80
20568;DHT22;10442;49.932;11.592;2023-12-22T07:36:37;6.30;74.00
20568;DHT22;10442;49.932;11.592;2023-12-22T07:39:17;6.30;74.20
20568;DHT22;10442;49.932;11.592;2023-12-22T07:41:46;6.30;74.40
20568;DHT22;10442;49.932;11.592;2023-12-22T07:44:17;6.30;74.40
20568;DHT22;10442;49.932;11.592;2023-12-22T07:46:56;6.30;74.50
20568;DHT22;10442;49.932;11.592;2023-12-22T07:49:24;6.20;74.60
20568;DHT22;10442;49.932;11.592;2023-12-22T07:51:52;6.20;74.60
20568;DHT22;10442;49.932;11.592;2023-12-22T07:54:21;6.20;75.50
20568;DHT22;10442;49.932;11.592;2023-12-22T07:56:50;6.20;75.50
20568;DHT22;10442;49.932;11.592;2023-12-22T07:59:19;6.20;74.80
20568;DHT22;10442;49.932;11.592;2023-12-22T08:01:57;6.20;75.50
20568;DHT22;10442;49.932;11.592;2023-12-22T08:04:25;6.20;74.70
20568;DHT22;10442;49.932;11.592;2023-12-22T08:06:53;6.20;74.50
20568;DHT22;10442;49.932;11.592;2023-12-22T08:09:21;6.20;74.50
20568;DHT22;10442;49.932;11.592;2023-12-22T08:11:51;6.20;74.60
20568;DHT22;10442;49.932;11.592;2023-12-22T08:14:22;6.20;74.90
20568;DHT22;10442;49.932;11.592;2023-12-22T08:16:49;6.20;75.20
20568;DHT22;10442;49.932;11.592;2023-12-22T08:19:19;6.30;75.50
20568;DHT22;10442;49.932;11.592;2023-12-22T08:21:49;6.30;75.90
20568;DHT22;10442;49.932;11.592;2023-12-22T08:24:21;6.30;76.90
20568;DHT22;10442;49.932;11.592;2023-12-22T08:26:50;6.30;76.30
20568;DHT22;10442;49.932;11.592;2023-12-22T08:29:18;6.30;76.60
20568;DHT22;10442;49.932;11.592;2023-12-22T08:31:47;6.30;77.00
20568;DHT22;10442;49.932;11.592;2023-12-22T08:34:16;6.30;77.10
20568;DHT22;10442;49.932;11.592;2023-12-22T08:36:43;6.30;77.30
20568;DHT22;10442;49.932;11.592;2023-12-22T08:39:11;6.30;77.30
20568;DHT22;10442;49.932;11.592;2023-12-22T08:41:41;6.30;77.20
20568;DHT22;10442;49.932;11.592;2023-12-22T08:44:09;6.30;77.30
20568;DHT22;10442;49.932;11.592;2023-12-22T08:46:37;6.30;77.10
20568;DHT22;10442;49.932;11.592;2023-12-22T08:49:06;6.40;76.90
20568;DHT22;10442;49.932;11.592;2023-12-22T08:51:35;6.50;76.70
20568;DHT22;10442;49.932;11.592;2023-12-22T08:54:03;6.50;76.40
20568;DHT22;10442;49.932;11.592;2023-12-22T08:56:34;6.60;76.30
20568;DHT22;10442;49.932;11.592;2023-12-22T08:59:04;6.60;76.10
20568;DHT22;10442;49.932;11.592;2023-12-22T09:01:33;6.70;75.90
20568;DHT22;10442;49.932;11.592;2023-12-22T09:04:00;6.70;75.70
20568;DHT22;10442;49.932;11.592;2023-12-22T09:06:28;6.80;75.20
20568;DHT22;10442;49.932;11.592;2023-12-22T09:08:56;6.80;75.00
20568;DHT22;10442;49.932;11.592;2023-12-22T09:11:27;6.90;75.00
20568;DHT22;10442;49.932;11.592;2023-12-22T09:13:55;6.90;74.90
20568;DHT22;10442;49.932;11.592;2023-12-22T09:16:24;7.00;75.00
20568;DHT22;10442;49.932;11.592;2023-12-22T09:18:54;7.00;74.60
20568;DHT22;10442;49.932;11.592;2023-12-22T09:21:21;7.00;74.40
20568;DHT22;10442;49.932;11.592;2023-12-22T09:23:52;7.10;74.30
20568;DHT22;10442;49.932;11.592;2023-12-22T09:26:20;7.10;74.20
20568;DHT22;10442;49.932;11.592;2023-12-22T09:28:48;7.20;74.20
20568;DHT22;10442;49.932;11.592;2023-12-22T09:31:16;7.20;73.70
20568;DHT22;10442;49.932;11.592;2023-12-22T09:33:44;7.20;73.70
20568;DHT22;10442;49.932;11.592;2023-12-22T09:36:12;7.30;73.80
20568;DHT22;10442;49.932;11.592;2023-12-22T09:38:40;7.30;73.70
20568;DHT22;10442;49.932;11.592;2023-12-22T09:41:10;7.40;73.90
20568;DHT22;10442;49.932;11.592;2023-12-22T09:43:39;7.40;73.30
20568;DHT22;10442;49.932;11.592;2023-12-22T09:46:09;7.50;73.30
20568;DHT22;10442;49.932;11.592;2023-12-22T09:48:39;7.50;73.00
20568;DHT22;10442;49.932;11.592;2023-12-22T09:51:08;7.50;72.60
20568;DHT22;10442;49.932;11.592;2023-12-22T09:53:38;7.60;72.70
20568;DHT22;10442;49.932;11.592;2023-12-22T09:56:07;7.60;72.70
20568;DHT22;10442;49.932;11.592;2023-12-22T09:58:36;7.60;72.60
20568;DHT22;10442;49.932;11.592;2023-12-22T10:01:05;7.60;72.20
20568;DHT22;10442;49.932;11.592;2023-12-22T10:03:34;7.70;72.40
20568;DHT22;10442;49.932;11.592;2023-12-22T10:06:03;7.70;72.30
20568;DHT22;10442;49.932;11.592;2023-12-22T10:08:32;7.70;72.20
20568;DHT22;10442;49.932;11.592;2023-12-22T10:11:00;7.80;72.20
20568;DHT22;10442;49.932;11.592;2023-12-22T10:13:27;7.80;72.10
20568;DHT22;10442;49.932;11.592;2023-12-22T10:15:56;7.80;72.00
20568;DHT22;10442;49.932;11.592;2023-12-22T10:18:25;7.80;72.10
20568;DHT22;10442;49.932;11.592;2023-12-22T10:20:55;7.80;72.20
20568;DHT22;10442;49.932;11.592;2023-12-22T10:23:23;7.80;72.30
20568;DHT22;10442;49.932;11.592;2023-12-22T10:25:52;7.80;72.40
20568;DHT22;10442;49.932;11.592;2023-12-22T10:28:20;7.80;72.50
20568;DHT22;10442;49.932;11.592;2023-12-22T10:30:52;7.80;73.30
20568;DHT22;10442;49.932;11.592;2023-12-22T10:33:20;7.90;72.60
20568;DHT22;10442;49.932;11.592;2023-12-22T10:35:48;7.90;72.40
20568;DHT22;10442;49.932;11.592;2023-12-22T10:38:19;8.00;72.40
20568;DHT22;10442;49.932;11.592;2023-12-22T10:40:48;8.00;72.20
20568;DHT22;10442;49.932;11.592;2023-12-22T10:43:17;8.00;72.10
20568;DHT22;10442;49.932;11.592;2023-12-22T10:45:46;8.00;72.00
20568;DHT22;10442;49.932;11.592;2023-12-22T10:48:14;8.00;72.00
20568;DHT22;10442;49.932;11.592;2023-12-22T10:50:43;8.00;71.70
20568;DHT22;10442;49.932;11.592;2023-12-22T10:53:11;8.00;71.80
20568;DHT22;10442;49.932;11.592;2023-12-22T10:55:46;8.10;71.90
20568;DHT22;10442;49.932;11.592;2023-12-22T10:58:15;8.10;71.70
20568;DHT22;10442;49.932;11.592;2023-12-22T11:00:45;8.10;71.70
20568;DHT22;10442;49.932;11.592;2023-12-22T11:03:17;8.20;71.80
20568;DHT22;10442;49.932;11.592;2023-12-22T11:05:46;8.20;71.80
20568;DHT22;10442;49.932;11.592;2023-12-22T11:08:15;8.20;71.70
20568;DHT22;10442;49.932;11.592;2023-12-22T11:10:51;8.20;72.10
20568;DHT22;10442;49.932;11.592;2023-12-22T11:13:21;8.20;72.10
20568;DHT22;10442;49.932;11.592;2023-12-22T11:15:51;8.20;72.20
20568;DHT22;10442;49.932;11.592;2023-12-22T11:18:21;8.30;72.50
20568;DHT22;10442;49.932;11.592;2023-12-22T11:20:50;8.20;72.70
20568;DHT22;10442;49.932;11.592;2023-12-22T11:23:20;8.30;72.90
20568;DHT22;10442;49.932;11.592;2023-12-22T11:25:51;8.20;73.10
20568;DHT22;10442;49.932;11.592;2023-12-22T11:28:22;8.20;73.30
20568;DHT22;10442;49.932;11.592;2023-12-22T11:30:51;8.20;73.30
20568;DHT22;10442;49.932;11.592;2023-12-22T11:33:25;8.20;73.60
20568;DHT22;10442;49.932;11.592;2023-12-22T11:35:56;8.10;73.80
20568;DHT22;10442;49.932;11.592;2023-12-22T11:38:25;8.10;74.20
20568;DHT22;10442;49.932;11.592;2023-12-22T11:40:54;8.00;74.50
20568;DHT22;10442;49.932;11.592;2023-12-22T11:43:24;8.00;74.90
20568;DHT22;10442;49.932;11.592;2023-12-22T11:45:52;8.00;75.00
20568;DHT22;10442;49.932;11.592;2023-12-22T11:48:19;8.00;75.20
20568;DHT22;10442;49.932;11.592;2023-12-22T11:50:49;7.90;75.60
20568;DHT22;10442;49.932;11.592;2023-12-22T11:53:25;7.90;75.80
20568;DHT22;10442;49.932;11.592;2023-12-22T11:56:01;7.90;76.10
20568;DHT22;10442;49.932;11.592;2023-12-22T12:01:02;7.80;76.60
20568;DHT22;10442;49.932;11.592;2023-12-22T12:03:35;7.80;77.10
20568;DHT22;10442;49.932;11.592;2023-12-22T12:08:42;7.80;77.70
20568;DHT22;10442;49.932;11.592;2023-12-22T12:11:11;7.80;77.90
20568;DHT22;10442;49.932;11.592;2023-12-22T12:13:45;7.80;78.20
20568;DHT22;10442;49.932;11.592;2023-12-22T12:16:15;7.80;78.30
20568;DHT22;10442;49.932;11.592;2023-12-22T12:18:46;7.90;78.40
20568;DHT22;10442;49.932;11.592;2023-12-22T12:21:15;7.90;78.50
20568;DHT22;10442;49.932;11.592;2023-12-22T12:23:43;7.90;78.40
20568;DHT22;10442;49.932;11.592;2023-12-22T12:26:14;7.90;78.40
20568;DHT22;10442;49.932;11.592;2023-12-22T12:28:47;7.90;78.50
20568;DHT22;10442;49.932;11.592;2023-12-22T12:31:14;7.90;78.60
20568;DHT22;10442;49.932;11.592;2023-12-22T12:33:44;8.00;78.60
20568;DHT22;10442;49.932;11.592;2023-12-22T12:36:15;7.90;78.30
20568;DHT22;10442;49.932;11.592;2023-12-22T12:38:53;7.80;77.70
20568;DHT22;10442;49.932;11.592;2023-12-22T12:41:29;7.80;77.20
20568;DHT22;10442;49.932;11.592;2023-12-22T12:44:03;7.60;76.40
20568;DHT22;10442;49.932;11.592;2023-12-22T12:49:09;7.30;75.60
20568;DHT22;10442;49.932;11.592;2023-12-22T12:51:41;7.20;76.00
20568;DHT22;10442;49.932;11.592;2023-12-22T12:54:10;7.10;76.40
20568;DHT22;10442;49.932;11.592;2023-12-22T12:56:42;7.00;76.60
20568;DHT22;10442;49.932;11.592;2023-12-22T12:59:11;6.90;76.90
20568;DHT22;10442;49.932;11.592;2023-12-22T13:01:44;6.90;77.10
20568;DHT22;10442;49.932;11.592;2023-12-22T13:04:14;6.80;77.40
20568;DHT22;10442;49.932;11.592;2023-12-22T13:06:48;6.70;77.40
20568;DHT22;10442;49.932;11.592;2023-12-22T13:09:17;6.70;77.80
20568;DHT22;10442;49.932;11.592;2023-12-22T13:11:46;6.60;78.10
20568;DHT22;10442;49.932;11.592;2023-12-22T13:14:24;6.60;78.30
20568;DHT22;10442;49.932;11.592;2023-12-22T13:16:56;6.60;78.50
20568;DHT22;10442;49.932;11.592;2023-12-22T13:19:26;6.50;78.50
20568;DHT22;10442;49.932;11.592;2023-12-22T13:21:55;6.60;78.80
20568;DHT22;10442;49.932;11.592;2023-12-22T13:24:24;6.50;78.70
20568;DHT22;10442;49.932;11.592;2023-12-22T13:27:03;6.50;78.80
20568;DHT22;10442;49.932;11.592;2023-12-22T13:29:45;6.50;78.90
20568;DHT22;10442;49.932;11.592;2023-12-22T13:32:17;6.50;79.00
20568;DHT22;10442;49.932;11.592;2023-12-22T13:34:53;6.50;79.00
20568;DHT22;10442;49.932;11.592;2023-12-22T13:37:21;6.50;79.10
20568;DHT22;10442;49.932;11.592;2023-12-22T13:39:51;6.50;79.10
20568;DHT22;10442;49.932;11.592;2023-12-22T13:42:19;6.50;79.90
20568;DHT22;10442;49.932;11.592;2023-12-22T13:44:50;6.60;79.20
20568;DHT22;10442;49.932;11.592;2023-12-22T13:47:19;6.50;79.20
20568;DHT22;10442;49.932;11.592;2023-12-22T13:49:47;6.60;79.20
20568;DHT22;10442;49.932;11.592;2023-12-22T13:52:31;6.60;79.30
20568;DHT22;10442;49.932;11.592;2023-12-22T13:55:12;6.60;79.30
20568;DHT22;10442;49.932;11.592;2023-12-22T13:57:44;6.70;79.20
20568;DHT22;10442;49.932;11.592;2023-12-22T14:02:48;6.70;79.10
20568;DHT22;10442;49.932;11.592;2023-12-22T14:05:17;6.70;79.10
20568;DHT22;10442;49.932;11.592;2023-12-22T14:07:45;6.70;79.00
20568;DHT22;10442;49.932;11.592;2023-12-22T14:10:14;6.70;78.90
20568;DHT22;10442;49.932;11.592;2023-12-22T14:12:41;6.70;78.90
20568;DHT22;10442;49.932;11.592;2023-12-22T14:15:11;6.70;78.70
20568;DHT22;10442;49.932;11.592;2023-12-22T14:17:38;6.70;78.70
20568;DHT22;10442;49.932;11.592;2023-12-22T14:20:09;6.70;78.70
20568;DHT22;10442;49.932;11.592;2023-12-22T14:22:38;6.70;78.60
20568;DHT22;10442;49.932;11.592;2023-12-22T14:25:06;6.70;78.50
20568;DHT22;10442;49.932;11.592;2023-12-22T14:27:34;6.70;78.30
20568;DHT22;10442;49.932;11.592;2023-12-22T14:30:04;6.70;78.20
20568;DHT22;10442;49.932;11.592;2023-12-22T14:32:32;6.60;77.90
20568;DHT22;10442;49.932;11.592;2023-12-22T14:34:59;6.60;77.90
20568;DHT22;10442;49.932;11.592;2023-12-22T14:37:32;6.60;77.90
20568;DHT22;10442;49.932;11.592;2023-12-22T14:40:00;6.50;77.90
20568;DHT22;10442;49.932;11.592;2023-12-22T14:42:27;6.50;77.80
20568;DHT22;10442;49.932;11.592;2023-12-22T14:44:55;6.50;77.70
20568;DHT22;10442;49.932;11.592;2023-12-22T14:47:23;6.40;77.70
20568;DHT22;10442;49.932;11.592;2023-12-22T14:49:52;6.40;77.80
20568;DHT22;10442;49.932;11.592;2023-12-22T14:52:20;6.40;77.90
20568;DHT22;10442;49.932;11.592;2023-12-22T14:54:48;6.40;77.90
20568;DHT22;10442;49.932;11.592;2023-12-22T14:57:17;6.30;77.80
20568;DHT22;10442;49.932;11.592;2023-12-22T14:59:45;6.30;77.90
20568;DHT22;10442;49.932;11.592;2023-12-22T15:02:13;6.30;78.00
20568;DHT22;10442;49.932;11.592;2023-12-22T15:04:41;6.30;78.20
20568;DHT22;10442;49.932;11.592;2023-12-22T15:07:09;6.30;78.40
20568;DHT22;10442;49.932;11.592;2023-12-22T15:09:40;6.30;78.40
20568;DHT22;10442;49.932;11.592;2023-12-22T15:12:08;6.30;78.40
20568;DHT22;10442;49.932;11.592;2023-12-22T15:14:35;6.30;78.40
20568;DHT22;10442;49.932;11.592;2023-12-22T15:17:03;6.40;78.50
20568;DHT22;10442;49.932;11.592;2023-12-22T15:19:32;6.40;78.50
20568;DHT22;10442;49.932;11.592;2023-12-22T15:21:59;6.40;78.40
20568;DHT22;10442;49.932;11.592;2023-12-22T15:24:27;6.40;78.30
20568;DHT22;10442;49.932;11.592;2023-12-22T15:26:57;6.40;78.30
20568;DHT22;10442;49.932;11.592;2023-12-22T15:29:27;6.40;78.30
20568;DHT22;10442;49.932;11.592;2023-12-22T15:31:55;6.40;78.30
20568;DHT22;10442;49.932;11.592;2023-12-22T15:34:27;6.40;78.50
20568;DHT22;10442;49.932;11.592;2023-12-22T15:36:55;6.40;78.50
20568;DHT22;10442;49.932;11.592;2023-12-22T15:39:23;6.40;78.50
20568;DHT22;10442;49.932;11.592;2023-12-22T15:41:51;6.40;78.50
20568;DHT22;10442;49.932;11.592;2023-12-22T15:44:18;6.40;78.60
20568;DHT22;10442;49.932;11.592;2023-12-22T15:46:46;6.40;78.60
20568;DHT22;10442;49.932;11.592;2023-12-22T15:49:13;6.40;78.70
20568;DHT22;10442;49.932;11.592;2023-12-22T15:51:41;6.40;78.60
20568;DHT22;10442;49.932;11.592;2023-12-22T15:54:09;6.40;78.60
20568;DHT22;10442;49.932;11.592;2023-12-22T15:56:36;6.40;78.70